M I D A S
Marine Information and Data Acquisition System
Tripno 1058 of the Zeeleeuw from 2006-03-29 06:38:57 to 2006-03-29 13:25:43
Back to CruiseResearch ActivitiesStationsMapUnderway DataData graphs

EquipmentUnitsComments
TimeDGPSUTC
LatitudeDGPSDM.mWGS84
LongitudeDGPSDM.mWGS84
SpeedMeteo Stationm/sRelative wind speed
DirectionMeteo StationdegRelative wind direction
TemperatureMeteo Stationdeg CelciusAir temperature
PressureMeteo StationPaAtmospheric pressure
HumidityMeteo Station%Relative humidity
Missing or incorrect values are displayed as -999
Metereological data collected by the RV Zeeleeuw from 2006-03-29 06:39:03 to 2006-03-29 13:39:00
                                                                                    Next 1000 lines
Time Latitude Longitude Speed Direction Temperature Pressure Humidity
2006-03-29 06:39:12 51°13.598 2°56.092 -999 137 7.7 100570 93
2006-03-29 06:39:18 51°13.599 2°56.089 -999 147 7.7 100570 93
2006-03-29 06:39:22 51°13.599 2°56.088 -999 151 7.7 100570 93
2006-03-29 06:39:28 51°13.6 2°56.085 -999 141 7.7 100570 93
2006-03-29 06:39:32 51°13.601 2°56.082 -999 140 7.7 100570 93
2006-03-29 06:39:37 51°13.602 2°56.079 -999 140 7.7 100570 93
2006-03-29 06:39:43 51°13.603 2°56.075 -999 165 7.7 100570 93
2006-03-29 06:39:48 51°13.605 2°56.07 -999 150 7.7 100580 93
2006-03-29 06:39:53 51°13.606 2°56.066 -999 160 7.7 100580 93
2006-03-29 06:39:58 51°13.607 2°56.06 -999 167 7.7 100570 93
2006-03-29 06:40:03 51°13.609 2°56.054 -999 174 7.7 100570 93
2006-03-29 06:40:08 51°13.61 2°56.047 -999 191 7.7 100570 93
2006-03-29 06:40:12 51°13.612 2°56.041 -999 169 7.7 100570 93
2006-03-29 06:40:18 51°13.614 2°56.032 -999 163 7.7 100570 93
2006-03-29 06:40:23 51°13.616 2°56.024 -999 162 7.7 100570 93
2006-03-29 06:40:28 51°13.618 2°56.016 -999 158 7.7 100570 93
2006-03-29 06:40:33 51°13.62 2°56.008 -999 159 7.7 100570 93
2006-03-29 06:40:38 51°13.622 2°55.999 -999 162 7.7 100570 93
2006-03-29 06:40:43 51°13.625 2°55.99 -999 170 7.7 100570 93
2006-03-29 06:40:48 51°13.627 2°55.981 -999 181 7.7 100570 93
2006-03-29 06:40:53 51°13.63 2°55.971 -999 161 7.7 100570 93
2006-03-29 06:40:58 51°13.633 2°55.962 -999 140 7.7 100570 93
2006-03-29 06:41:03 51°13.636 2°55.952 -999 166 7.7 100570 93
2006-03-29 06:41:08 51°13.64 2°55.942 -999 153 7.7 100570 93
2006-03-29 06:41:12 51°13.643 2°55.934 -999 166 7.7 100570 93
2006-03-29 06:41:18 51°13.647 2°55.922 -999 159 7.7 100570 93
2006-03-29 06:41:23 51°13.652 2°55.912 -999 149 7.7 100570 93
2006-03-29 06:41:28 51°13.656 2°55.902 -999 159 7.7 100570 93
2006-03-29 06:41:33 51°13.66 2°55.892 -999 170 7.7 100570 93
2006-03-29 06:41:38 51°13.664 2°55.882 -999 150 7.7 100570 93
2006-03-29 06:41:43 51°13.668 2°55.872 -999 164 7.7 100570 93
2006-03-29 06:41:48 51°13.672 2°55.864 -999 161 7.7 100570 93
2006-03-29 06:41:52 51°13.674 2°55.857 -999 155 7.7 100570 93
2006-03-29 06:41:58 51°13.678 2°55.848 -999 145 7.7 100570 93
2006-03-29 06:42:03 51°13.681 2°55.84 -999 151 7.7 100570 93
2006-03-29 06:42:08 51°13.684 2°55.833 -999 141 7.7 100570 93
2006-03-29 06:42:13 51°13.687 2°55.825 -999 160 7.7 100570 93
2006-03-29 06:42:18 51°13.69 2°55.817 -999 159 7.7 100570 93
2006-03-29 06:42:23 51°13.692 2°55.81 -999 169 7.7 100570 93
2006-03-29 06:42:28 51°13.695 2°55.802 -999 162 7.7 100570 93
2006-03-29 06:42:33 51°13.698 2°55.794 -999 146 7.7 100570 93
2006-03-29 06:42:38 51°13.7 2°55.787 -999 159 7.7 100570 93
2006-03-29 06:42:43 51°13.701 2°55.78 -999 166 7.7 100570 93
2006-03-29 06:42:48 51°13.703 2°55.773 -999 160 7.7 100570 93
2006-03-29 06:42:53 51°13.705 2°55.767 -999 170 7.7 100570 93
2006-03-29 06:42:58 51°13.706 2°55.761 -999 163 7.7 100570 93
2006-03-29 06:43:03 51°13.707 2°55.756 -999 173 7.7 100570 93
2006-03-29 06:43:08 51°13.708 2°55.751 -999 160 7.7 100570 93
2006-03-29 06:43:12 51°13.709 2°55.748 -999 173 7.7 100570 93
2006-03-29 06:43:18 51°13.71 2°55.744 -999 179 7.7 100570 93
2006-03-29 06:43:23 51°13.71 2°55.742 -999 175 7.7 100570 93
2006-03-29 06:43:28 51°13.711 2°55.74 -999 162 7.7 100580 93
2006-03-29 06:43:33 51°13.711 2°55.74 -999 142 7.7 100580 93
2006-03-29 06:43:38 51°13.712 2°55.741 -999 155 7.7 100570 93
2006-03-29 06:43:43 51°13.713 2°55.742 -999 198 7.7 100570 93
2006-03-29 06:43:48 51°13.713 2°55.744 -999 200 7.7 100580 93
2006-03-29 06:43:53 51°13.715 2°55.746 -999 181 7.7 100580 93
2006-03-29 06:43:58 51°13.716 2°55.748 -999 203 7.7 100580 93
2006-03-29 06:44:03 51°13.718 2°55.751 -999 237 7.7 100580 93
2006-03-29 06:44:08 51°13.719 2°55.752 -999 205 7.7 100570 93
2006-03-29 06:44:12 51°13.72 2°55.753 -999 229 7.7 100570 93
2006-03-29 06:44:18 51°13.721 2°55.754 -999 190 7.8 100580 93
2006-03-29 06:44:23 51°13.722 2°55.754 -999 216 7.8 100580 93
2006-03-29 06:44:28 51°13.723 2°55.754 -999 237 7.8 100580 93
2006-03-29 06:44:32 51°13.723 2°55.754 -999 238 7.8 100580 93
2006-03-29 06:44:38 51°13.723 2°55.752 -999 230 7.8 100580 93
2006-03-29 06:44:43 51°13.722 2°55.751 -999 228 7.8 100580 93
2006-03-29 06:44:48 51°13.721 2°55.749 -999 240 7.8 100580 93
2006-03-29 06:44:53 51°13.72 2°55.747 -999 212 7.8 100580 93
2006-03-29 06:44:58 51°13.718 2°55.745 -999 234 7.7 100580 93
2006-03-29 06:45:03 51°13.716 2°55.743 -999 234 7.7 100580 93
2006-03-29 06:45:08 51°13.715 2°55.741 -999 260 7.7 100590 93
2006-03-29 06:45:12 51°13.714 2°55.74 -999 218 7.7 100590 93
2006-03-29 06:45:18 51°13.712 2°55.738 -999 233 7.7 100580 93
2006-03-29 06:45:23 51°13.712 2°55.737 -999 229 7.7 100580 93
2006-03-29 06:45:28 51°13.711 2°55.737 -999 236 7.7 100580 93
2006-03-29 06:45:33 51°13.712 2°55.737 -999 247 7.7 100580 93
2006-03-29 06:45:38 51°13.712 2°55.736 -999 256 7.7 100570 93
2006-03-29 06:45:43 51°13.714 2°55.736 -999 263 7.7 100570 93
2006-03-29 06:45:48 51°13.716 2°55.736 -999 287 7.7 100580 93
2006-03-29 06:45:52 51°13.718 2°55.735 -999 284 7.7 100580 93
2006-03-29 06:45:58 51°13.721 2°55.733 -999 283 7.7 100580 93
2006-03-29 06:46:03 51°13.724 2°55.732 -999 288 7.7 100580 93
2006-03-29 06:46:08 51°13.727 2°55.729 -999 264 7.7 100580 93
2006-03-29 06:46:13 51°13.73 2°55.726 -999 285 7.7 100580 93
2006-03-29 06:46:17 51°13.733 2°55.723 -999 289 7.7 100580 93
2006-03-29 06:46:23 51°13.738 2°55.719 -999 42 7.7 100580 93
2006-03-29 06:46:28 51°13.742 2°55.714 -999 335 7.7 100580 93
2006-03-29 06:46:32 51°13.745 2°55.71 -999 323 7.7 100580 93
2006-03-29 06:46:38 51°13.751 2°55.705 -999 302 7.7 100580 93
2006-03-29 06:46:43 51°13.756 2°55.7 -999 326 7.7 100580 93
2006-03-29 06:46:48 51°13.761 2°55.694 -999 346 7.7 100580 93
2006-03-29 06:46:53 51°13.766 2°55.689 -999 338 7.7 100580 93
2006-03-29 06:46:58 51°13.772 2°55.683 -999 228 7.7 100580 93
2006-03-29 06:47:03 51°13.778 2°55.677 -999 318 7.7 100580 93
2006-03-29 06:47:08 51°13.784 2°55.671 -999 234 7.7 100580 93
2006-03-29 06:47:13 51°13.791 2°55.665 -999 308 7.7 100580 93
2006-03-29 06:47:18 51°13.799 2°55.658 -999 296 7.7 100570 93
2006-03-29 06:47:23 51°13.806 2°55.652 -999 342 7.7 100570 93
2006-03-29 06:47:28 51°13.814 2°55.645 -999 266 7.7 100570 93
2006-03-29 06:47:33 51°13.823 2°55.638 -999 288 7.7 100570 93
2006-03-29 06:47:38 51°13.831 2°55.631 -999 348 7.7 100580 93
2006-03-29 06:47:43 51°13.84 2°55.624 -999 334 7.7 100580 93
2006-03-29 06:47:48 51°13.849 2°55.617 -999 332 7.7 100580 93
2006-03-29 06:47:53 51°13.858 2°55.609 -999 352 7.7 100580 93
2006-03-29 06:47:58 51°13.868 2°55.602 -999 345 7.7 100570 93
2006-03-29 06:48:03 51°13.877 2°55.595 -999 329 7.7 100570 93
2006-03-29 06:48:08 51°13.887 2°55.588 -999 315 7.7 100580 93
2006-03-29 06:48:13 51°13.897 2°55.581 -999 311 7.7 100580 93
2006-03-29 06:48:18 51°13.907 2°55.574 -999 316 7.7 100580 93
2006-03-29 06:48:23 51°13.917 2°55.566 -999 323 7.7 100580 93
2006-03-29 06:48:28 51°13.927 2°55.559 -999 340 7.7 100570 93
2006-03-29 06:48:32 51°13.935 2°55.553 -999 311 7.7 100570 93
2006-03-29 06:48:38 51°13.948 2°55.545 -999 306 7.7 100580 93
2006-03-29 06:48:43 51°13.958 2°55.538 -999 -999 7.7 100580 93
2006-03-29 06:48:48 51°13.968 2°55.531 -999 354 7.7 100580 93
2006-03-29 06:48:53 51°13.978 2°55.524 -999 326 7.7 100580 93
2006-03-29 06:48:58 51°13.988 2°55.517 -999 328 7.8 100570 93
2006-03-29 06:49:03 51°13.998 2°55.511 -999 332 7.8 100570 93
2006-03-29 06:49:08 51°14.007 2°55.504 -999 332 7.7 100570 93
2006-03-29 06:49:12 51°14.014 2°55.499 -999 233 7.7 100570 93
2006-03-29 06:49:18 51°14.024 2°55.492 -999 329 7.7 100580 93
2006-03-29 06:49:23 51°14.033 2°55.486 -999 281 7.7 100580 93
2006-03-29 06:49:28 51°14.041 2°55.48 -999 300 7.7 100580 93
2006-03-29 06:49:33 51°14.049 2°55.474 -999 310 7.7 100580 93
2006-03-29 06:49:38 51°14.058 2°55.468 -999 325 7.7 100580 93
2006-03-29 06:49:43 51°14.066 2°55.461 -999 319 7.7 100580 93
2006-03-29 06:49:48 51°14.075 2°55.455 -999 309 7.7 100570 93
2006-03-29 06:49:53 51°14.084 2°55.448 -999 313 7.7 100570 93
2006-03-29 06:49:58 51°14.093 2°55.441 -999 337 7.7 100570 93
2006-03-29 06:50:03 51°14.102 2°55.434 -999 341 7.7 100570 93
2006-03-29 06:50:08 51°14.111 2°55.427 -999 356 7.7 100570 93
2006-03-29 06:50:13 51°14.12 2°55.42 -999 325 7.7 100570 93
2006-03-29 06:50:18 51°14.129 2°55.413 -999 343 7.7 100570 93
2006-03-29 06:50:23 51°14.139 2°55.405 -999 7 7.7 100570 93
2006-03-29 06:50:28 51°14.148 2°55.398 -999 338 7.7 100580 93
2006-03-29 06:50:32 51°14.155 2°55.391 -999 323 7.7 100580 93
2006-03-29 06:50:38 51°14.166 2°55.382 -999 317 7.7 100570 93
2006-03-29 06:50:43 51°14.175 2°55.374 -999 331 7.7 100570 93
2006-03-29 06:50:48 51°14.184 2°55.365 -999 318 7.7 100570 93
2006-03-29 06:50:53 51°14.193 2°55.356 -999 332 7.7 100570 93
2006-03-29 06:50:58 51°14.202 2°55.346 -999 229 7.7 100570 93
2006-03-29 06:51:03 51°14.21 2°55.337 -999 315 7.7 100570 93
2006-03-29 06:51:08 51°14.218 2°55.326 -999 321 7.7 100570 93
2006-03-29 06:51:13 51°14.226 2°55.316 -999 318 7.7 100570 93
2006-03-29 06:51:18 51°14.234 2°55.305 -999 319 7.7 100570 93
2006-03-29 06:51:23 51°14.242 2°55.293 -999 43 7.7 100570 93
2006-03-29 06:51:28 51°14.25 2°55.282 -999 324 7.7 100570 93
2006-03-29 06:51:32 51°14.255 2°55.272 -999 33 7.7 100570 93
2006-03-29 06:51:38 51°14.264 2°55.258 -999 32 7.7 100570 93
2006-03-29 06:51:43 51°14.271 2°55.245 -999 322 7.7 100570 93
2006-03-29 06:51:48 51°14.278 2°55.233 -999 319 7.7 100560 92
2006-03-29 06:51:53 51°14.285 2°55.22 -999 321 7.7 100560 92
2006-03-29 06:51:58 51°14.291 2°55.206 -999 324 7.7 100570 92
2006-03-29 06:52:03 51°14.298 2°55.194 -999 322 7.7 100570 92
2006-03-29 06:52:08 51°14.305 2°55.181 -999 323 7.6 100570 92
2006-03-29 06:52:12 51°14.31 2°55.17 -999 333 7.6 100570 92
2006-03-29 06:52:18 51°14.318 2°55.155 -999 342 7.6 100570 92
2006-03-29 06:52:23 51°14.325 2°55.142 -999 348 7.6 100570 92
2006-03-29 06:52:28 51°14.332 2°55.129 -999 330 7.6 100570 92
2006-03-29 06:52:33 51°14.339 2°55.117 -999 326 7.6 100570 92
2006-03-29 06:52:38 51°14.346 2°55.104 -999 329 7.6 100570 92
2006-03-29 06:52:43 51°14.354 2°55.092 -999 40 7.6 100570 92
2006-03-29 06:52:48 51°14.361 2°55.08 -999 319 7.6 100580 92
2006-03-29 06:52:52 51°14.367 2°55.07 -999 43 7.6 100580 92
2006-03-29 06:52:58 51°14.377 2°55.056 -999 42 7.6 100570 92
2006-03-29 06:53:02 51°14.383 2°55.047 -999 43 7.6 100570 92
2006-03-29 06:53:07 51°14.392 2°55.035 -999 313 7.6 100560 92
2006-03-29 06:53:13 51°14.403 2°55.021 -999 230 7.6 100560 92
2006-03-29 06:53:18 51°14.413 2°55.009 -999 315 7.5 100560 92
2006-03-29 06:53:23 51°14.423 2°54.996 -999 315 7.5 100560 92
2006-03-29 06:53:27 51°14.43 2°54.986 -999 227 7.6 100560 92
2006-03-29 06:53:33 51°14.443 2°54.969 -999 226 7.6 100560 92
2006-03-29 06:53:38 51°14.453 2°54.954 -999 38 7.5 100560 92
2006-03-29 06:53:43 51°14.464 2°54.939 -999 316 7.5 100560 92
2006-03-29 06:53:47 51°14.472 2°54.925 -999 317 7.5 100560 92
2006-03-29 06:53:52 51°14.483 2°54.909 -999 41 7.5 100560 92
2006-03-29 06:53:58 51°14.497 2°54.89 -999 320 7.5 100560 93
2006-03-29 06:54:03 51°14.509 2°54.874 -999 316 7.5 100560 93
2006-03-29 06:54:07 51°14.519 2°54.862 -999 229 7.5 100560 93
2006-03-29 06:54:13 51°14.535 2°54.845 -999 312 7.5 100560 93
2006-03-29 06:54:16 51°14.544 2°54.837 -999 309 7.5 100550 93
2006-03-29 06:54:23 51°14.564 2°54.82 -999 312 7.5 100550 93
2006-03-29 06:54:27 51°14.576 2°54.81 -999 228 7.5 100560 93
2006-03-29 06:54:32 51°14.591 2°54.798 -999 308 7.5 100560 93
2006-03-29 06:54:37 51°14.605 2°54.785 -999 311 7.5 100560 93
2006-03-29 06:54:43 51°14.622 2°54.769 -999 315 7.5 100560 93
2006-03-29 06:54:47 51°14.634 2°54.758 -999 227 7.5 100560 93
2006-03-29 06:54:52 51°14.648 2°54.743 -999 43 7.5 100560 93
2006-03-29 06:54:58 51°14.666 2°54.725 -999 227 7.5 100560 93
2006-03-29 06:55:03 51°14.679 2°54.71 -999 43 7.5 100560 93
2006-03-29 06:55:07 51°14.691 2°54.697 -999 41 7.5 100560 93
2006-03-29 06:55:12 51°14.705 2°54.681 -999 229 7.5 100560 93
2006-03-29 06:55:17 51°14.719 2°54.666 -999 43 7.4 100550 93
2006-03-29 06:55:22 51°14.733 2°54.65 -999 41 7.4 100550 93
2006-03-29 06:55:27 51°14.747 2°54.635 -999 228 7.4 100560 93
2006-03-29 06:55:32 51°14.762 2°54.619 -999 313 7.4 100560 93
2006-03-29 06:55:37 51°14.776 2°54.604 -999 39 7.4 100550 93
2006-03-29 06:55:43 51°14.793 2°54.586 -999 315 7.4 100550 93
2006-03-29 06:55:47 51°14.805 2°54.574 -999 228 7.4 100560 93
2006-03-29 06:55:52 51°14.819 2°54.559 -999 315 7.4 100560 93
2006-03-29 06:55:57 51°14.834 2°54.544 -999 317 7.4 100560 93
2006-03-29 06:56:03 51°14.851 2°54.526 -999 317 7.4 100560 93
2006-03-29 06:56:08 51°14.865 2°54.51 -999 41 7.4 100560 93
2006-03-29 06:56:12 51°14.876 2°54.498 -999 230 7.4 100560 93
2006-03-29 06:56:18 51°14.893 2°54.48 -999 44 7.4 100560 93
2006-03-29 06:56:23 51°14.908 2°54.464 -999 318 7.4 100560 93
2006-03-29 06:56:28 51°14.922 2°54.449 -999 42 7.4 100560 93
2006-03-29 06:56:33 51°14.936 2°54.434 -999 228 7.4 100560 93
2006-03-29 06:56:36 51°14.945 2°54.425 -999 317 7.4 100550 93
2006-03-29 06:56:42 51°14.962 2°54.407 -999 43 7.4 100550 93
2006-03-29 06:56:48 51°14.98 2°54.391 -999 228 7.4 100550 93
2006-03-29 06:56:52 51°14.991 2°54.381 -999 313 7.4 100550 93
2006-03-29 06:56:58 51°15.009 2°54.365 -999 226 7.4 100550 93
2006-03-29 06:57:03 51°15.023 2°54.351 -999 312 7.4 100550 93
2006-03-29 06:57:08 51°15.037 2°54.339 -999 311 7.4 100550 93
2006-03-29 06:57:12 51°15.049 2°54.328 -999 313 7.4 100550 93
2006-03-29 06:57:18 51°15.067 2°54.315 -999 310 7.4 100560 93
2006-03-29 06:57:22 51°15.079 2°54.306 -999 310 7.4 100560 93
2006-03-29 06:57:27 51°15.094 2°54.295 -999 303 7.4 100570 93
2006-03-29 06:57:33 51°15.112 2°54.282 -999 307 7.4 100570 93
2006-03-29 06:57:38 51°15.127 2°54.271 -999 310 7.3 100560 93
2006-03-29 06:57:43 51°15.142 2°54.259 -999 311 7.3 100560 93
2006-03-29 06:57:48 51°15.156 2°54.248 -999 313 7.4 100560 93
2006-03-29 06:57:52 51°15.168 2°54.238 -999 310 7.4 100560 93
2006-03-29 06:57:58 51°15.186 2°54.222 -999 315 7.3 100560 93
2006-03-29 06:58:03 51°15.2 2°54.206 -999 312 7.3 100560 93
2006-03-29 06:58:08 51°15.214 2°54.19 -999 320 7.3 100570 93
2006-03-29 06:58:12 51°15.225 2°54.176 -999 320 7.3 100570 93
2006-03-29 06:58:18 51°15.241 2°54.156 -999 318 7.3 100560 93
2006-03-29 06:58:23 51°15.254 2°54.138 -999 321 7.3 100560 93
2006-03-29 06:58:27 51°15.265 2°54.125 -999 315 7.3 100550 93
2006-03-29 06:58:32 51°15.279 2°54.108 -999 42 7.3 100550 93
2006-03-29 06:58:38 51°15.296 2°54.088 -999 41 7.3 100560 93
2006-03-29 06:58:43 51°15.31 2°54.073 -999 227 7.3 100560 93
2006-03-29 06:58:48 51°15.325 2°54.059 -999 309 7.3 100550 93
2006-03-29 06:58:52 51°15.337 2°54.049 -999 309 7.3 100550 93
2006-03-29 06:58:58 51°15.356 2°54.035 -999 308 7.3 100560 93
2006-03-29 06:59:03 51°15.372 2°54.025 -999 310 7.3 100560 93
2006-03-29 06:59:08 51°15.388 2°54.014 -999 312 7.3 100550 94
2006-03-29 06:59:12 51°15.4 2°54.005 -999 227 7.3 100550 94
2006-03-29 06:59:17 51°15.416 2°53.995 -999 312 7.3 100560 94
2006-03-29 06:59:22 51°15.432 2°53.983 -999 312 7.3 100560 94
2006-03-29 06:59:28 51°15.451 2°53.969 -999 312 7.3 100560 94
2006-03-29 06:59:33 51°15.467 2°53.956 -999 40 7.3 100560 94
2006-03-29 06:59:36 51°15.476 2°53.948 -999 42 7.3 100560 94
2006-03-29 06:59:42 51°15.494 2°53.931 -999 316 7.3 100560 94
2006-03-29 06:59:48 51°15.512 2°53.915 -999 228 7.3 100560 94
2006-03-29 06:59:52 51°15.524 2°53.903 -999 225 7.3 100560 94
2006-03-29 06:59:57 51°15.539 2°53.888 -999 227 7.2 100560 94
2006-03-29 07:00:02 51°15.555 2°53.874 -999 227 7.2 100560 94
2006-03-29 07:00:07 51°15.57 2°53.859 -999 231 7.2 100560 94
2006-03-29 07:00:13 51°15.588 2°53.843 -999 316 7.2 100560 94
2006-03-29 07:00:18 51°15.603 2°53.828 -999 307 7.2 100560 94
2006-03-29 07:00:23 51°15.619 2°53.814 -999 313 7.2 100560 94
2006-03-29 07:00:28 51°15.634 2°53.8 -999 310 7.2 100550 94
2006-03-29 07:00:32 51°15.646 2°53.79 -999 311 7.2 100550 94
2006-03-29 07:00:38 51°15.665 2°53.773 -999 312 7.2 100560 94
2006-03-29 07:00:43 51°15.68 2°53.759 -999 228 7.2 100560 94
2006-03-29 07:00:48 51°15.695 2°53.745 -999 315 7.2 100560 94
2006-03-29 07:00:52 51°15.707 2°53.734 -999 311 7.2 100560 94
2006-03-29 07:00:58 51°15.725 2°53.718 -999 231 7.2 100560 94
2006-03-29 07:01:03 51°15.741 2°53.704 -999 228 7.2 100560 94
2006-03-29 07:01:08 51°15.756 2°53.691 -999 314 7.2 100550 94
2006-03-29 07:01:12 51°15.768 2°53.681 -999 227 7.2 100550 94
2006-03-29 07:01:18 51°15.787 2°53.665 -999 312 7.2 100560 94
2006-03-29 07:01:23 51°15.803 2°53.653 -999 312 7.2 100560 94
2006-03-29 07:01:27 51°15.815 2°53.643 -999 309 7.2 100560 94
2006-03-29 07:01:32 51°15.831 2°53.631 -999 311 7.2 100560 94
2006-03-29 07:01:36 51°15.843 2°53.621 -999 312 7.2 100570 94
2006-03-29 07:01:43 51°15.865 2°53.604 -999 44 7.2 100570 94
2006-03-29 07:01:48 51°15.88 2°53.592 -999 229 7.2 100560 94
2006-03-29 07:01:52 51°15.893 2°53.582 -999 229 7.2 100560 94
2006-03-29 07:01:57 51°15.908 2°53.57 -999 312 7.2 100570 94
2006-03-29 07:02:02 51°15.923 2°53.557 -999 314 7.2 100570 94
2006-03-29 07:02:08 51°15.941 2°53.542 -999 229 7.2 100560 94
2006-03-29 07:02:13 51°15.957 2°53.529 -999 314 7.2 100560 94
2006-03-29 07:02:18 51°15.972 2°53.517 -999 315 7.2 100560 94
2006-03-29 07:02:22 51°15.984 2°53.506 -999 313 7.2 100560 94
2006-03-29 07:02:27 51°15.999 2°53.493 -999 310 7.2 100560 94
2006-03-29 07:02:33 51°16.017 2°53.478 -999 312 7.2 100560 94
2006-03-29 07:02:38 51°16.032 2°53.465 -999 309 7.1 100560 94
2006-03-29 07:02:43 51°16.047 2°53.451 -999 229 7.1 100560 94
2006-03-29 07:02:47 51°16.059 2°53.441 -999 313 7.1 100560 94
2006-03-29 07:02:52 51°16.074 2°53.428 -999 229 7.1 100560 94
2006-03-29 07:02:58 51°16.092 2°53.413 -999 312 7.1 100560 94
2006-03-29 07:03:03 51°16.108 2°53.4 -999 312 7.1 100560 94
2006-03-29 07:03:08 51°16.123 2°53.388 -999 229 7.1 100560 94
2006-03-29 07:03:13 51°16.138 2°53.375 -999 319 7.1 100560 94
2006-03-29 07:03:18 51°16.154 2°53.363 -999 315 7.1 100570 94
2006-03-29 07:03:23 51°16.169 2°53.351 -999 311 7.1 100570 94
2006-03-29 07:03:28 51°16.184 2°53.339 -999 309 7.1 100560 94
2006-03-29 07:03:32 51°16.197 2°53.329 -999 310 7.1 100560 94
2006-03-29 07:03:37 51°16.212 2°53.316 -999 313 7.1 100560 94
2006-03-29 07:03:43 51°16.23 2°53.3 -999 306 7.1 100560 94
2006-03-29 07:03:48 51°16.245 2°53.287 -999 314 7.1 100560 94
2006-03-29 07:03:52 51°16.257 2°53.276 -999 312 7.1 100560 94
2006-03-29 07:03:56 51°16.269 2°53.265 -999 313 7.1 100560 94
2006-03-29 07:04:02 51°16.287 2°53.249 -999 315 7.1 100560 94
2006-03-29 07:04:08 51°16.305 2°53.232 -999 227 7.1 100560 94
2006-03-29 07:04:12 51°16.317 2°53.221 -999 228 7.1 100560 94
2006-03-29 07:04:18 51°16.335 2°53.205 -999 313 7.1 100560 94
2006-03-29 07:04:23 51°16.35 2°53.192 -999 44 7.1 100560 94
2006-03-29 07:04:28 51°16.366 2°53.179 -999 318 7.1 100560 94
2006-03-29 07:04:33 51°16.381 2°53.166 -999 314 7.1 100560 94
2006-03-29 07:04:37 51°16.393 2°53.156 -999 316 7.1 100570 94
2006-03-29 07:04:42 51°16.408 2°53.142 -999 43 7.1 100570 94
2006-03-29 07:04:47 51°16.423 2°53.129 -999 318 7.1 100560 95
2006-03-29 07:04:52 51°16.439 2°53.116 -999 43 7.1 100560 95
2006-03-29 07:04:58 51°16.457 2°53.1 -999 229 7.1 100560 95
2006-03-29 07:05:03 51°16.473 2°53.088 -999 41 7.1 100560 95
2006-03-29 07:05:08 51°16.488 2°53.076 -999 314 7.1 100560 95
2006-03-29 07:05:12 51°16.501 2°53.067 -999 41 7.1 100560 95
2006-03-29 07:05:18 51°16.519 2°53.051 -999 316 7.1 100570 95
2006-03-29 07:05:23 51°16.535 2°53.039 -999 317 7.1 100570 95
2006-03-29 07:05:28 51°16.55 2°53.026 -999 317 7.1 100560 95
2006-03-29 07:05:33 51°16.565 2°53.013 -999 313 7.1 100560 95
2006-03-29 07:05:36 51°16.574 2°53.005 -999 40 7.1 100570 95
2006-03-29 07:05:42 51°16.592 2°52.989 -999 37 7.1 100570 95
2006-03-29 07:05:48 51°16.611 2°52.974 -999 228 7.1 100570 95
2006-03-29 07:05:52 51°16.623 2°52.964 -999 40 7.1 100570 95
2006-03-29 07:05:57 51°16.638 2°52.953 -999 230 7 100570 95
2006-03-29 07:06:02 51°16.653 2°52.941 -999 42 7 100570 95
2006-03-29 07:06:08 51°16.672 2°52.926 -999 227 7 100560 95
2006-03-29 07:06:13 51°16.687 2°52.915 -999 227 7 100560 95
2006-03-29 07:06:18 51°16.702 2°52.903 -999 310 7 100570 95
2006-03-29 07:06:23 51°16.717 2°52.891 -999 313 7 100570 95
2006-03-29 07:06:28 51°16.732 2°52.878 -999 228 7 100560 95
2006-03-29 07:06:32 51°16.745 2°52.869 -999 227 7 100560 95
2006-03-29 07:06:38 51°16.762 2°52.854 -999 314 7 100570 95
2006-03-29 07:06:42 51°16.774 2°52.844 -999 313 7 100570 95
2006-03-29 07:06:47 51°16.788 2°52.831 -999 42 7 100570 95
2006-03-29 07:06:52 51°16.803 2°52.819 -999 318 7 100570 95
2006-03-29 07:06:57 51°16.817 2°52.806 -999 315 7 100570 95
2006-03-29 07:07:03 51°16.834 2°52.791 -999 228 7 100570 95
2006-03-29 07:07:07 51°16.846 2°52.781 -999 39 7 100560 95
2006-03-29 07:07:12 51°16.86 2°52.768 -999 314 7 100560 95
2006-03-29 07:07:18 51°16.877 2°52.753 -999 317 7 100570 95
2006-03-29 07:07:23 51°16.891 2°52.74 -999 315 7 100570 95
2006-03-29 07:07:28 51°16.905 2°52.727 -999 313 7 100570 95
2006-03-29 07:07:33 51°16.92 2°52.714 -999 316 7 100570 95
2006-03-29 07:07:38 51°16.934 2°52.7 -999 314 7 100570 95
2006-03-29 07:07:43 51°16.948 2°52.687 -999 40 7 100570 95
2006-03-29 07:07:48 51°16.962 2°52.673 -999 227 7 100570 95
2006-03-29 07:07:52 51°16.974 2°52.663 -999 43 7 100570 95
2006-03-29 07:07:58 51°16.991 2°52.647 -999 318 6.9 100570 95
2006-03-29 07:08:03 51°17.006 2°52.633 -999 229 6.9 100570 95
2006-03-29 07:08:07 51°17.018 2°52.624 -999 44 7 100570 95
2006-03-29 07:08:12 51°17.033 2°52.612 -999 229 7 100570 95
2006-03-29 07:08:17 51°17.048 2°52.6 -999 309 7 100570 95
2006-03-29 07:08:23 51°17.065 2°52.587 -999 311 7 100570 95
2006-03-29 07:08:28 51°17.08 2°52.576 -999 311 7 100570 95
2006-03-29 07:08:32 51°17.092 2°52.567 -999 233 7 100570 95
2006-03-29 07:08:37 51°17.107 2°52.556 -999 312 7 100580 95
2006-03-29 07:08:42 51°17.121 2°52.543 -999 230 7 100580 95
2006-03-29 07:08:48 51°17.138 2°52.526 -999 315 7 100570 95
2006-03-29 07:08:53 51°17.151 2°52.51 -999 317 7 100570 95
2006-03-29 07:08:58 51°17.165 2°52.495 -999 314 7 100570 95
2006-03-29 07:09:02 51°17.175 2°52.482 -999 227 7 100570 95
2006-03-29 07:09:07 51°17.188 2°52.465 -999 315 7 100570 95
2006-03-29 07:09:13 51°17.205 2°52.446 -999 43 7 100570 95
2006-03-29 07:09:17 51°17.215 2°52.433 -999 313 7 100570 95
2006-03-29 07:09:22 51°17.229 2°52.418 -999 310 7 100570 95
2006-03-29 07:09:28 51°17.246 2°52.399 -999 317 6.9 100560 95
2006-03-29 07:09:33 51°17.259 2°52.384 -999 313 6.9 100560 95
2006-03-29 07:09:38 51°17.273 2°52.368 -999 315 6.9 100570 95
2006-03-29 07:09:43 51°17.287 2°52.352 -999 40 6.9 100570 95
2006-03-29 07:09:48 51°17.3 2°52.335 -999 322 6.9 100570 95
2006-03-29 07:09:52 51°17.31 2°52.32 -999 319 6.9 100570 95
2006-03-29 07:09:58 51°17.324 2°52.297 -999 320 6.9 100570 95
2006-03-29 07:10:02 51°17.333 2°52.281 -999 319 6.9 100570 95
2006-03-29 07:10:07 51°17.344 2°52.261 -999 321 6.9 100570 95
2006-03-29 07:10:12 51°17.355 2°52.241 -999 321 6.9 100570 95
2006-03-29 07:10:18 51°17.369 2°52.215 -999 322 6.9 100560 95
2006-03-29 07:10:23 51°17.379 2°52.194 -999 326 6.9 100560 95
2006-03-29 07:10:28 51°17.39 2°52.172 -999 326 6.9 100560 95
2006-03-29 07:10:32 51°17.398 2°52.154 -999 330 6.9 100560 95
2006-03-29 07:10:37 51°17.407 2°52.131 -999 330 6.9 100570 95
2006-03-29 07:10:43 51°17.419 2°52.103 -999 326 6.9 100570 95
2006-03-29 07:10:48 51°17.427 2°52.08 -999 329 6.9 100570 95
2006-03-29 07:10:53 51°17.436 2°52.055 -999 333 6.9 100570 95
2006-03-29 07:10:58 51°17.444 2°52.031 -999 329 6.9 100560 95
2006-03-29 07:11:02 51°17.451 2°52.011 -999 328 6.9 100560 95
2006-03-29 07:11:08 51°17.461 2°51.982 -999 328 6.9 100560 95
2006-03-29 07:11:13 51°17.469 2°51.958 -999 329 6.9 100560 95
2006-03-29 07:11:18 51°17.478 2°51.933 -999 331 6.9 100550 95
2006-03-29 07:11:22 51°17.484 2°51.913 -999 330 6.9 100550 95
2006-03-29 07:11:28 51°17.495 2°51.884 -999 328 6.9 100560 95
2006-03-29 07:11:33 51°17.503 2°51.86 -999 327 6.9 100560 95
2006-03-29 07:11:38 51°17.512 2°51.836 -999 327 6.9 100560 95
2006-03-29 07:11:42 51°17.519 2°51.817 -999 328 6.9 100560 95
2006-03-29 07:11:47 51°17.528 2°51.793 -999 329 6.9 100560 95
2006-03-29 07:11:52 51°17.537 2°51.77 -999 331 6.9 100560 95
2006-03-29 07:11:58 51°17.548 2°51.741 -999 328 6.9 100570 96
2006-03-29 07:12:02 51°17.555 2°51.723 -999 333 6.9 100570 96
2006-03-29 07:12:07 51°17.564 2°51.699 -999 332 6.9 100560 96
2006-03-29 07:12:12 51°17.573 2°51.676 -999 329 6.9 100560 96
2006-03-29 07:12:18 51°17.583 2°51.647 -999 330 6.9 100560 96
2006-03-29 07:12:23 51°17.591 2°51.623 -999 330 6.9 100560 96
2006-03-29 07:12:28 51°17.6 2°51.599 -999 328 6.9 100560 96
2006-03-29 07:12:33 51°17.608 2°51.575 -999 330 6.9 100560 96
2006-03-29 07:12:36 51°17.613 2°51.56 -999 332 6.9 100560 96
2006-03-29 07:12:43 51°17.624 2°51.526 -999 331 6.9 100560 96
2006-03-29 07:12:48 51°17.632 2°51.502 -999 334 6.9 100570 96
2006-03-29 07:12:53 51°17.641 2°51.479 -999 328 6.9 100570 96
2006-03-29 07:12:56 51°17.646 2°51.465 -999 325 6.9 100560 96
2006-03-29 07:13:03 51°17.658 2°51.432 -999 331 6.9 100560 96
2006-03-29 07:13:08 51°17.667 2°51.408 -999 325 6.8 100570 96
2006-03-29 07:13:13 51°17.676 2°51.385 -999 327 6.8 100570 96
2006-03-29 07:13:16 51°17.682 2°51.371 -999 330 6.9 100570 96
2006-03-29 07:13:22 51°17.693 2°51.343 -999 328 6.9 100570 96
2006-03-29 07:13:28 51°17.703 2°51.315 -999 328 6.9 100570 96
2006-03-29 07:13:32 51°17.71 2°51.296 -999 329 6.9 100570 96
2006-03-29 07:13:37 51°17.719 2°51.272 -999 329 6.8 100570 96
2006-03-29 07:13:43 51°17.729 2°51.243 -999 331 6.8 100570 96
2006-03-29 07:13:48 51°17.738 2°51.218 -999 329 6.8 100560 96
2006-03-29 07:13:52 51°17.744 2°51.199 -999 332 6.8 100560 96
2006-03-29 07:13:58 51°17.754 2°51.169 -999 333 6.9 100560 96
2006-03-29 07:14:03 51°17.762 2°51.144 -999 330 6.9 100560 96
2006-03-29 07:14:08 51°17.771 2°51.12 -999 332 6.8 100560 96
2006-03-29 07:14:13 51°17.779 2°51.095 -999 330 6.8 100560 96
2006-03-29 07:14:18 51°17.788 2°51.071 -999 329 6.8 100560 96
2006-03-29 07:14:23 51°17.796 2°51.045 -999 332 6.8 100560 96
2006-03-29 07:14:28 51°17.804 2°51.02 -999 330 6.8 100570 96
2006-03-29 07:14:32 51°17.81 2°51 -999 330 6.8 100570 96
2006-03-29 07:14:38 51°17.82 2°50.969 -999 336 6.8 100560 96
2006-03-29 07:14:43 51°17.828 2°50.944 -999 331 6.8 100560 96
2006-03-29 07:14:48 51°17.836 2°50.919 -999 335 6.8 100570 96
2006-03-29 07:14:52 51°17.843 2°50.898 -999 331 6.8 100570 96
2006-03-29 07:14:58 51°17.853 2°50.868 -999 333 6.8 100560 96
2006-03-29 07:15:03 51°17.861 2°50.843 -999 330 6.8 100560 96
2006-03-29 07:15:07 51°17.868 2°50.822 -999 333 6.8 100570 96
2006-03-29 07:15:12 51°17.876 2°50.797 -999 333 6.8 100570 96
2006-03-29 07:15:17 51°17.883 2°50.771 -999 332 6.8 100570 96
2006-03-29 07:15:22 51°17.892 2°50.746 -999 327 6.8 100570 96
2006-03-29 07:15:28 51°17.901 2°50.715 -999 332 6.8 100560 96
2006-03-29 07:15:33 51°17.909 2°50.689 -999 330 6.8 100560 96
2006-03-29 07:15:36 51°17.913 2°50.673 -999 333 6.8 100570 96
2006-03-29 07:15:43 51°17.924 2°50.637 -999 336 6.8 100570 96
2006-03-29 07:15:48 51°17.932 2°50.611 -999 331 6.8 100560 96
2006-03-29 07:15:53 51°17.94 2°50.585 -999 336 6.8 100560 96
2006-03-29 07:15:58 51°17.947 2°50.559 -999 331 6.8 100570 96
2006-03-29 07:16:03 51°17.954 2°50.532 -999 327 6.8 100570 96
2006-03-29 07:16:08 51°17.962 2°50.507 -999 332 6.8 100570 96
2006-03-29 07:16:13 51°17.97 2°50.481 -999 334 6.8 100570 96
2006-03-29 07:16:18 51°17.977 2°50.455 -999 331 6.8 100560 96
2006-03-29 07:16:23 51°17.985 2°50.429 -999 332 6.8 100560 96
2006-03-29 07:16:28 51°17.993 2°50.403 -999 328 6.8 100560 96
2006-03-29 07:16:33 51°18.001 2°50.377 -999 328 6.8 100560 96
2006-03-29 07:16:38 51°18.009 2°50.352 -999 328 6.8 100570 96
2006-03-29 07:16:43 51°18.017 2°50.326 -999 329 6.8 100570 96
2006-03-29 07:16:48 51°18.025 2°50.3 -999 331 6.8 100560 96
2006-03-29 07:16:53 51°18.032 2°50.274 -999 328 6.8 100560 96
2006-03-29 07:16:58 51°18.04 2°50.247 -999 335 6.8 100560 96
2006-03-29 07:17:03 51°18.047 2°50.221 -999 332 6.8 100560 96
2006-03-29 07:17:08 51°18.055 2°50.195 -999 329 6.8 100560 96
2006-03-29 07:17:12 51°18.061 2°50.174 -999 334 6.8 100560 96
2006-03-29 07:17:18 51°18.07 2°50.142 -999 331 6.8 100560 96
2006-03-29 07:17:23 51°18.078 2°50.116 -999 333 6.8 100560 96
2006-03-29 07:17:28 51°18.086 2°50.09 -999 334 6.8 100570 96
2006-03-29 07:17:33 51°18.094 2°50.064 -999 329 6.8 100570 96
2006-03-29 07:17:38 51°18.102 2°50.039 -999 331 6.8 100560 96
2006-03-29 07:17:42 51°18.109 2°50.018 -999 329 6.8 100560 96
2006-03-29 07:17:48 51°18.12 2°49.989 -999 325 6.8 100570 96
2006-03-29 07:17:53 51°18.129 2°49.964 -999 327 6.8 100570 96
2006-03-29 07:17:58 51°18.139 2°49.94 -999 328 6.8 100570 96
2006-03-29 07:18:02 51°18.146 2°49.92 -999 325 6.8 100570 96
2006-03-29 07:18:08 51°18.158 2°49.891 -999 326 6.8 100570 96
2006-03-29 07:18:13 51°18.167 2°49.866 -999 324 6.8 100570 96
2006-03-29 07:18:18 51°18.176 2°49.842 -999 326 6.8 100560 96
2006-03-29 07:18:22 51°18.184 2°49.822 -999 326 6.8 100560 96
2006-03-29 07:18:28 51°18.195 2°49.793 -999 326 6.8 100570 96
2006-03-29 07:18:33 51°18.204 2°49.768 -999 328 6.8 100570 96
2006-03-29 07:18:38 51°18.213 2°49.743 -999 328 6.8 100560 96
2006-03-29 07:18:43 51°18.222 2°49.718 -999 325 6.8 100560 96
2006-03-29 07:18:47 51°18.23 2°49.698 -999 328 6.8 100570 96
2006-03-29 07:18:52 51°18.239 2°49.673 -999 328 6.8 100570 96
2006-03-29 07:18:58 51°18.25 2°49.644 -999 327 6.8 100570 96
2006-03-29 07:19:03 51°18.259 2°49.619 -999 329 6.8 100570 96
2006-03-29 07:19:08 51°18.268 2°49.595 -999 331 6.8 100570 96
2006-03-29 07:19:13 51°18.278 2°49.57 -999 327 6.8 100570 96
2006-03-29 07:19:18 51°18.287 2°49.545 -999 332 6.8 100570 96
2006-03-29 07:19:23 51°18.296 2°49.52 -999 330 6.8 100570 96
2006-03-29 07:19:27 51°18.303 2°49.5 -999 325 6.8 100580 96
2006-03-29 07:19:32 51°18.311 2°49.475 -999 324 6.8 100580 96
2006-03-29 07:19:36 51°18.318 2°49.455 -999 328 6.7 100570 96
2006-03-29 07:19:42 51°18.329 2°49.425 -999 330 6.7 100570 96
2006-03-29 07:19:48 51°18.339 2°49.395 -999 330 6.7 100580 96
2006-03-29 07:19:52 51°18.346 2°49.375 -999 328 6.7 100580 96
2006-03-29 07:19:58 51°18.357 2°49.344 -999 327 6.7 100580 96
2006-03-29 07:20:02 51°18.364 2°49.324 -999 328 6.7 100580 96
2006-03-29 07:20:08 51°18.374 2°49.294 -999 333 6.7 100570 96
2006-03-29 07:20:13 51°18.383 2°49.268 -999 329 6.7 100570 96
2006-03-29 07:20:18 51°18.391 2°49.242 -999 333 6.7 100580 97
2006-03-29 07:20:22 51°18.397 2°49.221 -999 329 6.7 100580 97
2006-03-29 07:20:28 51°18.406 2°49.19 -999 333 6.7 100570 96
2006-03-29 07:20:33 51°18.412 2°49.163 -999 334 6.7 100570 96
2006-03-29 07:20:38 51°18.42 2°49.136 -999 337 6.8 100560 97
2006-03-29 07:20:43 51°18.427 2°49.11 -999 335 6.8 100560 97
2006-03-29 07:20:48 51°18.433 2°49.083 -999 338 6.7 100570 97
2006-03-29 07:20:53 51°18.44 2°49.056 -999 337 6.7 100570 97
2006-03-29 07:20:58 51°18.447 2°49.029 -999 339 6.7 100570 97
2006-03-29 07:21:03 51°18.454 2°49.002 -999 335 6.7 100570 97
2006-03-29 07:21:08 51°18.461 2°48.975 -999 334 6.7 100580 97
2006-03-29 07:21:13 51°18.469 2°48.949 -999 336 6.7 100580 97
2006-03-29 07:21:18 51°18.476 2°48.922 -999 335 6.7 100580 97
2006-03-29 07:21:22 51°18.482 2°48.901 -999 329 6.7 100580 97
2006-03-29 07:21:28 51°18.491 2°48.87 -999 334 6.7 100580 97
2006-03-29 07:21:32 51°18.498 2°48.849 -999 332 6.7 100580 97
2006-03-29 07:21:38 51°18.507 2°48.818 -999 334 6.7 100570 97
2006-03-29 07:21:43 51°18.514 2°48.792 -999 332 6.7 100570 97
2006-03-29 07:21:48 51°18.522 2°48.765 -999 334 6.7 100570 97
2006-03-29 07:21:52 51°18.528 2°48.744 -999 332 6.7 100570 97
2006-03-29 07:21:58 51°18.537 2°48.712 -999 336 6.7 100580 97
2006-03-29 07:22:03 51°18.543 2°48.685 -999 335 6.7 100580 97
2006-03-29 07:22:08 51°18.551 2°48.658 -999 336 6.7 100570 97
2006-03-29 07:22:12 51°18.556 2°48.637 -999 339 6.7 100570 97
2006-03-29 07:22:18 51°18.565 2°48.605 -999 332 6.7 100580 97
2006-03-29 07:22:22 51°18.571 2°48.583 -999 334 6.7 100580 97
2006-03-29 07:22:28 51°18.58 2°48.552 -999 335 6.7 100580 97
2006-03-29 07:22:33 51°18.587 2°48.525 -999 330 6.7 100580 97
2006-03-29 07:22:38 51°18.595 2°48.499 -999 330 6.7 100590 97
2006-03-29 07:22:43 51°18.603 2°48.472 -999 335 6.7 100590 97
2006-03-29 07:22:48 51°18.611 2°48.445 -999 332 6.7 100580 97
2006-03-29 07:22:52 51°18.617 2°48.424 -999 334 6.7 100580 97
2006-03-29 07:22:56 51°18.623 2°48.402 -999 338 6.7 100570 97
2006-03-29 07:23:02 51°18.632 2°48.37 -999 336 6.7 100570 97
2006-03-29 07:23:07 51°18.639 2°48.343 -999 335 6.7 100580 97
2006-03-29 07:23:12 51°18.647 2°48.316 -999 336 6.7 100580 97
2006-03-29 07:23:18 51°18.655 2°48.283 -999 336 6.7 100580 97
2006-03-29 07:23:23 51°18.663 2°48.257 -999 334 6.7 100580 97
2006-03-29 07:23:28 51°18.67 2°48.229 -999 336 6.7 100580 97
2006-03-29 07:23:32 51°18.676 2°48.208 -999 335 6.7 100580 97
2006-03-29 07:23:38 51°18.684 2°48.175 -999 337 6.7 100580 97
2006-03-29 07:23:43 51°18.692 2°48.148 -999 334 6.7 100580 97
2006-03-29 07:23:48 51°18.699 2°48.12 -999 334 6.7 100570 97
2006-03-29 07:23:53 51°18.706 2°48.093 -999 336 6.7 100570 97
2006-03-29 07:23:58 51°18.713 2°48.066 -999 334 6.7 100580 97
2006-03-29 07:24:03 51°18.72 2°48.039 -999 337 6.7 100580 97
2006-03-29 07:24:08 51°18.728 2°48.011 -999 336 6.7 100580 97
2006-03-29 07:24:12 51°18.733 2°47.989 -999 337 6.7 100580 97
2006-03-29 07:24:17 51°18.741 2°47.962 -999 332 6.7 100570 97
2006-03-29 07:24:23 51°18.749 2°47.93 -999 337 6.7 100570 97
2006-03-29 07:24:28 51°18.756 2°47.902 -999 335 6.7 100580 97
2006-03-29 07:24:33 51°18.763 2°47.874 -999 337 6.7 100580 97
2006-03-29 07:24:38 51°18.77 2°47.847 -999 339 6.7 100570 97
2006-03-29 07:24:42 51°18.775 2°47.825 -999 336 6.7 100570 97
2006-03-29 07:24:48 51°18.783 2°47.79 -999 336 6.7 100580 97
2006-03-29 07:24:53 51°18.789 2°47.763 -999 337 6.7 100580 97
2006-03-29 07:24:58 51°18.795 2°47.735 -999 334 6.7 100570 97
2006-03-29 07:25:03 51°18.801 2°47.707 -999 332 6.7 100570 97
2006-03-29 07:25:08 51°18.808 2°47.679 -999 335 6.7 100580 97
2006-03-29 07:25:12 51°18.813 2°47.656 -999 329 6.7 100580 97
2006-03-29 07:25:18 51°18.82 2°47.623 -999 335 6.7 100570 97
2006-03-29 07:25:23 51°18.827 2°47.595 -999 335 6.7 100570 97
2006-03-29 07:25:28 51°18.833 2°47.567 -999 332 6.7 100580 97
2006-03-29 07:25:33 51°18.84 2°47.54 -999 333 6.7 100580 97
2006-03-29 07:25:38 51°18.847 2°47.512 -999 334 6.6 100580 97
2006-03-29 07:25:42 51°18.853 2°47.49 -999 337 6.6 100580 97
2006-03-29 07:25:48 51°18.86 2°47.456 -999 333 6.6 100580 97
2006-03-29 07:25:52 51°18.866 2°47.434 -999 336 6.6 100580 97
2006-03-29 07:25:58 51°18.874 2°47.401 -999 335 6.7 100570 97
2006-03-29 07:26:02 51°18.879 2°47.378 -999 335 6.7 100570 97
2006-03-29 07:26:07 51°18.886 2°47.35 -999 332 6.6 100580 97
2006-03-29 07:26:12 51°18.893 2°47.322 -999 338 6.6 100580 97
2006-03-29 07:26:18 51°18.901 2°47.289 -999 336 6.6 100580 97
2006-03-29 07:26:23 51°18.908 2°47.261 -999 337 6.6 100580 97
2006-03-29 07:26:28 51°18.915 2°47.233 -999 335 6.6 100580 97
2006-03-29 07:26:32 51°18.92 2°47.21 -999 334 6.6 100580 97
2006-03-29 07:26:36 51°18.925 2°47.188 -999 333 6.6 100580 97
2006-03-29 07:26:43 51°18.935 2°47.148 -999 334 6.6 100580 97
2006-03-29 07:26:48 51°18.941 2°47.12 -999 332 6.6 100590 97
2006-03-29 07:26:53 51°18.948 2°47.092 -999 336 6.6 100590 97
2006-03-29 07:26:58 51°18.954 2°47.063 -999 336 6.6 100580 97
2006-03-29 07:27:02 51°18.96 2°47.041 -999 333 6.6 100580 97
2006-03-29 07:27:08 51°18.968 2°47.007 -999 334 6.6 100580 97
2006-03-29 07:27:13 51°18.975 2°46.979 -999 336 6.6 100580 97
2006-03-29 07:27:18 51°18.981 2°46.95 -999 331 6.6 100580 97
2006-03-29 07:27:23 51°18.988 2°46.922 -999 334 6.6 100580 97
2006-03-29 07:27:28 51°18.994 2°46.894 -999 335 6.6 100580 97
2006-03-29 07:27:33 51°19.001 2°46.865 -999 336 6.6 100580 97
2006-03-29 07:27:38 51°19.008 2°46.837 -999 337 6.6 100580 97
2006-03-29 07:27:43 51°19.014 2°46.809 -999 332 6.6 100580 97
2006-03-29 07:27:48 51°19.021 2°46.78 -999 333 6.6 100580 97
2006-03-29 07:27:53 51°19.028 2°46.752 -999 333 6.6 100580 97
2006-03-29 07:27:58 51°19.035 2°46.724 -999 334 6.6 100580 97
2006-03-29 07:28:03 51°19.042 2°46.696 -999 330 6.6 100580 97
2006-03-29 07:28:07 51°19.047 2°46.673 -999 335 6.6 100570 97
2006-03-29 07:28:12 51°19.055 2°46.645 -999 337 6.6 100570 97
2006-03-29 07:28:18 51°19.063 2°46.611 -999 332 6.6 100570 97
2006-03-29 07:28:22 51°19.068 2°46.589 -999 333 6.6 100570 97
2006-03-29 07:28:28 51°19.076 2°46.554 -999 334 6.6 100580 97
2006-03-29 07:28:32 51°19.082 2°46.532 -999 336 6.6 100580 97
2006-03-29 07:28:36 51°19.087 2°46.509 -999 336 6.6 100580 97
2006-03-29 07:28:43 51°19.097 2°46.47 -999 335 6.6 100580 97
2006-03-29 07:28:48 51°19.104 2°46.442 -999 335 6.6 100570 97
2006-03-29 07:28:53 51°19.11 2°46.413 -999 335 6.6 100570 97
2006-03-29 07:28:58 51°19.117 2°46.385 -999 338 6.6 100570 97
2006-03-29 07:29:03 51°19.124 2°46.357 -999 337 6.6 100570 97
2006-03-29 07:29:08 51°19.131 2°46.328 -999 335 6.6 100580 97
2006-03-29 07:29:13 51°19.138 2°46.3 -999 334 6.6 100580 97
2006-03-29 07:29:17 51°19.143 2°46.278 -999 337 6.6 100580 97
2006-03-29 07:29:22 51°19.15 2°46.249 -999 332 6.6 100580 97
2006-03-29 07:29:28 51°19.158 2°46.215 -999 332 6.6 100580 97
2006-03-29 07:29:32 51°19.163 2°46.192 -999 332 6.6 100580 97
2006-03-29 07:29:37 51°19.17 2°46.164 -999 337 6.6 100580 97
2006-03-29 07:29:42 51°19.177 2°46.136 -999 335 6.6 100580 97
2006-03-29 07:29:47 51°19.184 2°46.108 -999 333 6.6 100580 97
2006-03-29 07:29:53 51°19.193 2°46.074 -999 335 6.6 100580 97
2006-03-29 07:29:58 51°19.199 2°46.046 -999 333 6.6 100580 97
2006-03-29 07:30:03 51°19.206 2°46.018 -999 334 6.6 100580 97
2006-03-29 07:30:08 51°19.213 2°45.99 -999 337 6.6 100580 97
2006-03-29 07:30:12 51°19.218 2°45.967 -999 334 6.6 100580 97
2006-03-29 07:30:18 51°19.227 2°45.933 -999 334 6.6 100580 97
2006-03-29 07:30:23 51°19.233 2°45.905 -999 331 6.6 100580 97
2006-03-29 07:30:27 51°19.239 2°45.883 -999 334 6.6 100580 97
2006-03-29 07:30:32 51°19.246 2°45.854 -999 336 6.6 100580 97
2006-03-29 07:30:38 51°19.254 2°45.821 -999 332 6.6 100580 97
2006-03-29 07:30:43 51°19.261 2°45.793 -999 336 6.6 100580 97
2006-03-29 07:30:47 51°19.266 2°45.77 -999 330 6.6 100590 97
2006-03-29 07:30:52 51°19.273 2°45.742 -999 337 6.6 100590 97
2006-03-29 07:30:58 51°19.281 2°45.709 -999 333 6.6 100580 97
2006-03-29 07:31:03 51°19.288 2°45.681 -999 334 6.6 100580 97
2006-03-29 07:31:08 51°19.295 2°45.653 -999 335 6.6 100580 97
2006-03-29 07:31:12 51°19.301 2°45.63 -999 332 6.6 100580 97
2006-03-29 07:31:18 51°19.309 2°45.597 -999 335 6.6 100580 97
2006-03-29 07:31:23 51°19.316 2°45.569 -999 335 6.6 100580 97
2006-03-29 07:31:28 51°19.323 2°45.541 -999 337 6.6 100590 97
2006-03-29 07:31:32 51°19.329 2°45.518 -999 334 6.6 100590 97
2006-03-29 07:31:37 51°19.336 2°45.491 -999 335 6.6 100590 97
2006-03-29 07:31:42 51°19.343 2°45.463 -999 339 6.6 100590 97
2006-03-29 07:31:48 51°19.352 2°45.43 -999 336 6.5 100590 97
2006-03-29 07:31:52 51°19.358 2°45.408 -999 335 6.5 100590 97
2006-03-29 07:31:58 51°19.367 2°45.375 -999 336 6.6 100580 97
2006-03-29 07:32:03 51°19.374 2°45.348 -999 334 6.6 100580 97
2006-03-29 07:32:08 51°19.382 2°45.321 -999 333 6.6 100580 97
2006-03-29 07:32:13 51°19.39 2°45.294 -999 336 6.6 100580 97
2006-03-29 07:32:18 51°19.398 2°45.267 -999 334 6.5 100590 97
2006-03-29 07:32:23 51°19.406 2°45.24 -999 334 6.5 100590 97
2006-03-29 07:32:28 51°19.414 2°45.213 -999 334 6.5 100590 97
2006-03-29 07:32:33 51°19.422 2°45.187 -999 332 6.5 100590 97
2006-03-29 07:32:38 51°19.43 2°45.16 -999 335 6.6 100590 97
2006-03-29 07:32:43 51°19.438 2°45.133 -999 332 6.6 100590 97
2006-03-29 07:32:48 51°19.446 2°45.105 -999 335 6.6 100590 97
2006-03-29 07:32:52 51°19.453 2°45.083 -999 337 6.6 100590 97
2006-03-29 07:32:58 51°19.462 2°45.05 -999 336 6.5 100590 97
2006-03-29 07:33:02 51°19.468 2°45.027 -999 332 6.5 100590 97
2006-03-29 07:33:08 51°19.478 2°44.994 -999 335 6.5 100580 97
2006-03-29 07:33:12 51°19.484 2°44.972 -999 333 6.5 100580 97
2006-03-29 07:33:17 51°19.492 2°44.945 -999 337 6.5 100590 97
2006-03-29 07:33:23 51°19.502 2°44.912 -999 334 6.5 100590 97
2006-03-29 07:33:28 51°19.51 2°44.885 -999 332 6.6 100580 97
2006-03-29 07:33:32 51°19.516 2°44.863 -999 332 6.6 100580 97
2006-03-29 07:33:38 51°19.526 2°44.83 -999 332 6.6 100580 97
2006-03-29 07:33:42 51°19.533 2°44.808 -999 335 6.6 100580 97
2006-03-29 07:33:48 51°19.542 2°44.775 -999 334 6.6 100580 97
2006-03-29 07:33:52 51°19.549 2°44.753 -999 331 6.6 100580 97
2006-03-29 07:33:58 51°19.558 2°44.72 -999 334 6.5 100590 97
2006-03-29 07:34:02 51°19.565 2°44.698 -999 336 6.5 100590 97
2006-03-29 07:34:08 51°19.574 2°44.664 -999 333 6.6 100580 97
2006-03-29 07:34:12 51°19.581 2°44.642 -999 336 6.6 100580 97
2006-03-29 07:34:18 51°19.59 2°44.609 -999 332 6.6 100580 97
2006-03-29 07:34:23 51°19.598 2°44.581 -999 334 6.6 100580 97
2006-03-29 07:34:27 51°19.605 2°44.559 -999 334 6.6 100580 97
2006-03-29 07:34:32 51°19.613 2°44.531 -999 333 6.6 100580 97
2006-03-29 07:34:38 51°19.622 2°44.498 -999 331 6.6 100570 97
2006-03-29 07:34:43 51°19.63 2°44.47 -999 330 6.6 100570 97
2006-03-29 07:34:48 51°19.638 2°44.442 -999 335 6.5 100580 97
2006-03-29 07:34:52 51°19.645 2°44.42 -999 336 6.5 100580 97
2006-03-29 07:34:58 51°19.654 2°44.387 -999 331 6.5 100590 97
2006-03-29 07:35:03 51°19.662 2°44.359 -999 336 6.5 100590 97
2006-03-29 07:35:07 51°19.668 2°44.336 -999 333 6.6 100570 97
2006-03-29 07:35:12 51°19.676 2°44.308 -999 331 6.6 100570 97
2006-03-29 07:35:16 51°19.683 2°44.286 -999 333 6.6 100580 97
2006-03-29 07:35:23 51°19.694 2°44.247 -999 331 6.6 100580 97
2006-03-29 07:35:28 51°19.702 2°44.218 -999 334 6.6 100580 98
2006-03-29 07:35:32 51°19.708 2°44.196 -999 336 6.6 100580 98
2006-03-29 07:35:37 51°19.716 2°44.168 -999 330 6.5 100580 98
2006-03-29 07:35:43 51°19.726 2°44.134 -999 330 6.5 100580 98
2006-03-29 07:35:48 51°19.733 2°44.106 -999 332 6.6 100590 98
2006-03-29 07:35:53 51°19.742 2°44.078 -999 334 6.6 100590 98
2006-03-29 07:35:58 51°19.749 2°44.05 -999 333 6.6 100590 98
2006-03-29 07:36:03 51°19.757 2°44.022 -999 335 6.6 100590 98
2006-03-29 07:36:08 51°19.765 2°43.994 -999 332 6.5 100590 98
2006-03-29 07:36:12 51°19.772 2°43.971 -999 330 6.5 100590 98
2006-03-29 07:36:18 51°19.781 2°43.938 -999 335 6.6 100580 98
2006-03-29 07:36:22 51°19.788 2°43.915 -999 332 6.6 100580 98
2006-03-29 07:36:28 51°19.797 2°43.881 -999 333 6.6 100580 98
2006-03-29 07:36:32 51°19.803 2°43.859 -999 334 6.6 100580 98
2006-03-29 07:36:38 51°19.813 2°43.825 -999 333 6.6 100580 98
2006-03-29 07:36:43 51°19.82 2°43.797 -999 334 6.6 100580 98
2006-03-29 07:36:48 51°19.828 2°43.768 -999 335 6.6 100590 98
2006-03-29 07:36:53 51°19.836 2°43.74 -999 332 6.6 100590 98
2006-03-29 07:36:58 51°19.843 2°43.712 -999 333 6.6 100580 98
2006-03-29 07:37:03 51°19.851 2°43.684 -999 333 6.6 100580 98
2006-03-29 07:37:08 51°19.859 2°43.656 -999 332 6.6 100580 98
2006-03-29 07:37:13 51°19.866 2°43.628 -999 332 6.6 100580 98
2006-03-29 07:37:18 51°19.874 2°43.6 -999 334 6.6 100580 98
2006-03-29 07:37:23 51°19.882 2°43.572 -999 338 6.6 100580 98
2006-03-29 07:37:28 51°19.89 2°43.544 -999 332 6.6 100580 98
2006-03-29 07:37:33 51°19.898 2°43.516 -999 335 6.6 100580 98
2006-03-29 07:37:36 51°19.902 2°43.499 -999 334 6.6 100590 98
2006-03-29 07:37:43 51°19.914 2°43.46 -999 334 6.6 100590 98
2006-03-29 07:37:48 51°19.922 2°43.432 -999 337 6.6 100580 98
2006-03-29 07:37:53 51°19.93 2°43.404 -999 335 6.6 100580 98
2006-03-29 07:37:58 51°19.938 2°43.377 -999 332 6.6 100590 98
2006-03-29 07:38:03 51°19.946 2°43.349 -999 332 6.6 100590 98
2006-03-29 07:38:08 51°19.954 2°43.321 -999 333 6.6 100590 98
2006-03-29 07:38:12 51°19.961 2°43.299 -999 335 6.6 100590 98
2006-03-29 07:38:18 51°19.97 2°43.265 -999 334 6.6 100580 98
2006-03-29 07:38:23 51°19.977 2°43.237 -999 337 6.6 100580 98
2006-03-29 07:38:28 51°19.985 2°43.208 -999 339 6.6 100590 98
2006-03-29 07:38:32 51°19.991 2°43.186 -999 333 6.6 100590 98
2006-03-29 07:38:38 51°20 2°43.152 -999 333 6.6 100590 98
2006-03-29 07:38:42 51°20.006 2°43.13 -999 333 6.6 100590 98
2006-03-29 07:38:48 51°20.015 2°43.096 -999 333 6.6 100580 98
2006-03-29 07:38:53 51°20.023 2°43.069 -999 334 6.6 100580 98
2006-03-29 07:38:58 51°20.031 2°43.041 -999 336 6.6 100590 98
2006-03-29 07:39:03 51°20.039 2°43.013 -999 335 6.6 100590 98
2006-03-29 07:39:08 51°20.046 2°42.985 -999 334 6.6 100590 98
2006-03-29 07:39:13 51°20.053 2°42.957 -999 334 6.6 100590 98
2006-03-29 07:39:18 51°20.061 2°42.929 -999 336 6.6 100590 98
2006-03-29 07:39:22 51°20.066 2°42.906 -999 332 6.6 100590 98
2006-03-29 07:39:28 51°20.075 2°42.872 -999 333 6.6 100590 98
2006-03-29 07:39:32 51°20.081 2°42.85 -999 335 6.6 100590 98
2006-03-29 07:39:38 51°20.09 2°42.816 -999 332 6.6 100580 98
2006-03-29 07:39:43 51°20.097 2°42.788 -999 335 6.6 100580 98
2006-03-29 07:39:48 51°20.105 2°42.76 -999 335 6.6 100580 98
2006-03-29 07:39:52 51°20.11 2°42.738 -999 335 6.6 100580 98
2006-03-29 07:39:56 51°20.116 2°42.715 -999 333 6.6 100580 98
2006-03-29 07:40:02 51°20.125 2°42.681 -999 329 6.6 100580 98
2006-03-29 07:40:08 51°20.134 2°42.648 -999 331 6.6 100580 98
2006-03-29 07:40:12 51°20.14 2°42.625 -999 335 6.6 100580 98
2006-03-29 07:40:18 51°20.149 2°42.592 -999 335 6.6 100580 98
2006-03-29 07:40:23 51°20.156 2°42.564 -999 334 6.6 100580 98
2006-03-29 07:40:28 51°20.163 2°42.536 -999 340 6.7 100590 98
2006-03-29 07:40:33 51°20.171 2°42.507 -999 336 6.7 100590 98
2006-03-29 07:40:38 51°20.178 2°42.479 -999 337 6.6 100590 98
2006-03-29 07:40:42 51°20.184 2°42.456 -999 334 6.6 100590 98
2006-03-29 07:40:48 51°20.192 2°42.422 -999 335 6.6 100580 98
2006-03-29 07:40:53 51°20.199 2°42.394 -999 335 6.6 100580 98
2006-03-29 07:40:58 51°20.206 2°42.365 -999 337 6.6 100590 98
2006-03-29 07:41:03 51°20.213 2°42.337 -999 338 6.6 100590 98
2006-03-29 07:41:08 51°20.219 2°42.308 -999 335 6.6 100590 98
2006-03-29 07:41:13 51°20.225 2°42.278 -999 337 6.6 100590 98
2006-03-29 07:41:18 51°20.231 2°42.249 -999 341 6.6 100590 98
2006-03-29 07:41:23 51°20.237 2°42.22 -999 337 6.6 100590 98
2006-03-29 07:41:28 51°20.243 2°42.191 -999 339 6.6 100580 98
2006-03-29 07:41:33 51°20.249 2°42.161 -999 338 6.6 100580 98
2006-03-29 07:41:38 51°20.256 2°42.132 -999 338 6.6 100590 98
2006-03-29 07:41:42 51°20.261 2°42.109 -999 337 6.6 100590 98
2006-03-29 07:41:47 51°20.267 2°42.08 -999 338 6.6 100590 98
2006-03-29 07:41:52 51°20.273 2°42.051 -999 335 6.6 100590 98
2006-03-29 07:41:58 51°20.281 2°42.016 -999 338 6.6 100590 98
2006-03-29 07:42:03 51°20.287 2°41.986 -999 336 6.6 100590 98
2006-03-29 07:42:07 51°20.292 2°41.963 -999 339 6.6 100590 98
2006-03-29 07:42:12 51°20.298 2°41.933 -999 339 6.6 100590 98
2006-03-29 07:42:17 51°20.303 2°41.903 -999 338 6.6 100580 98
2006-03-29 07:42:23 51°20.309 2°41.868 -999 338 6.6 100580 98
2006-03-29 07:42:28 51°20.315 2°41.838 -999 339 6.7 100590 98
2006-03-29 07:42:32 51°20.319 2°41.815 -999 338 6.7 100590 98
2006-03-29 07:42:38 51°20.326 2°41.779 -999 336 6.6 100580 98
2006-03-29 07:42:43 51°20.332 2°41.75 -999 337 6.6 100580 98
2006-03-29 07:42:48 51°20.337 2°41.72 -999 333 6.7 100580 98
2006-03-29 07:42:52 51°20.342 2°41.697 -999 338 6.7 100580 98
2006-03-29 07:42:58 51°20.349 2°41.661 -999 340 6.7 100590 98
2006-03-29 07:43:03 51°20.355 2°41.632 -999 332 6.7 100590 98
2006-03-29 07:43:08 51°20.36 2°41.603 -999 340 6.7 100580 98
2006-03-29 07:43:13 51°20.366 2°41.574 -999 339 6.7 100580 98
2006-03-29 07:43:18 51°20.371 2°41.544 -999 337 6.7 100590 98
2006-03-29 07:43:23 51°20.377 2°41.515 -999 338 6.7 100590 98
2006-03-29 07:43:28 51°20.382 2°41.486 -999 336 6.7 100590 98
2006-03-29 07:43:33 51°20.388 2°41.457 -999 336 6.7 100590 98
2006-03-29 07:43:38 51°20.394 2°41.427 -999 335 6.7 100580 98
2006-03-29 07:43:42 51°20.398 2°41.404 -999 338 6.7 100580 98
2006-03-29 07:43:48 51°20.405 2°41.369 -999 337 6.7 100590 98
2006-03-29 07:43:53 51°20.411 2°41.34 -999 339 6.7 100590 98
2006-03-29 07:43:58 51°20.416 2°41.311 -999 340 6.7 100590 98
2006-03-29 07:44:03 51°20.422 2°41.282 -999 335 6.7 100590 98
2006-03-29 07:44:08 51°20.428 2°41.253 -999 340 6.7 100590 98
2006-03-29 07:44:12 51°20.433 2°41.23 -999 340 6.7 100590 98
2006-03-29 07:44:18 51°20.44 2°41.195 -999 338 6.7 100590 98
2006-03-29 07:44:23 51°20.445 2°41.165 -999 340 6.7 100590 98
2006-03-29 07:44:27 51°20.45 2°41.142 -999 338 6.7 100580 98
2006-03-29 07:44:32 51°20.455 2°41.113 -999 341 6.7 100580 98
2006-03-29 07:44:36 51°20.46 2°41.09 -999 339 6.7 100580 98
2006-03-29 07:44:43 51°20.467 2°41.048 -999 340 6.7 100580 98
2006-03-29 07:44:48 51°20.472 2°41.019 -999 341 6.7 100600 98
2006-03-29 07:44:53 51°20.476 2°40.989 -999 342 6.7 100600 98
2006-03-29 07:44:58 51°20.48 2°40.959 -999 340 6.7 100600 98
2006-03-29 07:45:03 51°20.484 2°40.928 -999 341 6.7 100600 98
2006-03-29 07:45:08 51°20.488 2°40.898 -999 342 6.7 100600 98
2006-03-29 07:45:13 51°20.492 2°40.868 -999 345 6.7 100600 98
2006-03-29 07:45:18 51°20.495 2°40.838 -999 346 6.7 100610 98
2006-03-29 07:45:23 51°20.499 2°40.807 -999 341 6.7 100610 98
2006-03-29 07:45:28 51°20.503 2°40.777 -999 344 6.7 100600 98
2006-03-29 07:45:33 51°20.506 2°40.746 -999 344 6.7 100600 98
2006-03-29 07:45:38 51°20.51 2°40.716 -999 342 6.7 100610 98
2006-03-29 07:45:43 51°20.514 2°40.686 -999 345 6.7 100610 98
2006-03-29 07:45:48 51°20.517 2°40.655 -999 345 6.7 100600 98
2006-03-29 07:45:53 51°20.52 2°40.625 -999 346 6.7 100600 98
2006-03-29 07:45:58 51°20.523 2°40.594 -999 343 6.7 100600 98
2006-03-29 07:46:03 51°20.527 2°40.563 -999 343 6.7 100600 98
2006-03-29 07:46:08 51°20.53 2°40.533 -999 346 6.7 100610 98
2006-03-29 07:46:13 51°20.533 2°40.502 -999 343 6.7 100610 98
2006-03-29 07:46:18 51°20.537 2°40.472 -999 342 6.7 100600 98
2006-03-29 07:46:23 51°20.54 2°40.441 -999 344 6.7 100600 98
2006-03-29 07:46:28 51°20.544 2°40.411 -999 342 6.7 100610 98
2006-03-29 07:46:33 51°20.547 2°40.381 -999 342 6.7 100610 98
2006-03-29 07:46:38 51°20.551 2°40.35 -999 344 6.7 100600 98
2006-03-29 07:46:43 51°20.555 2°40.32 -999 345 6.7 100600 98
2006-03-29 07:46:48 51°20.559 2°40.29 -999 342 6.7 100600 98
2006-03-29 07:46:53 51°20.563 2°40.259 -999 342 6.7 100600 98
2006-03-29 07:46:58 51°20.566 2°40.229 -999 341 6.7 100610 98
2006-03-29 07:47:03 51°20.57 2°40.199 -999 343 6.7 100610 98
2006-03-29 07:47:08 51°20.574 2°40.168 -999 344 6.7 100610 98
2006-03-29 07:47:12 51°20.576 2°40.143 -999 343 6.7 100610 98
2006-03-29 07:47:18 51°20.581 2°40.107 -999 345 6.7 100610 98
2006-03-29 07:47:23 51°20.584 2°40.076 -999 345 6.7 100610 98
2006-03-29 07:47:28 51°20.587 2°40.046 -999 343 6.7 100610 98
2006-03-29 07:47:32 51°20.59 2°40.021 -999 343 6.7 100610 98
2006-03-29 07:47:37 51°20.593 2°39.99 -999 346 6.7 100610 98
2006-03-29 07:47:43 51°20.597 2°39.954 -999 346 6.7 100610 98
2006-03-29 07:47:48 51°20.601 2°39.923 -999 346 6.7 100610 98
2006-03-29 07:47:53 51°20.604 2°39.892 -999 345 6.7 100610 98
2006-03-29 07:47:58 51°20.608 2°39.862 -999 344 6.6 100600 98
2006-03-29 07:48:03 51°20.611 2°39.832 -999 345 6.6 100600 98
2006-03-29 07:48:08 51°20.615 2°39.802 -999 342 6.7 100620 98
2006-03-29 07:48:13 51°20.619 2°39.771 -999 346 6.7 100620 98
2006-03-29 07:48:18 51°20.623 2°39.741 -999 340 6.7 100610 98
2006-03-29 07:48:23 51°20.627 2°39.711 -999 340 6.7 100610 98
2006-03-29 07:48:28 51°20.63 2°39.68 -999 343 6.7 100610 98
2006-03-29 07:48:33 51°20.634 2°39.65 -999 345 6.7 100610 98
2006-03-29 07:48:38 51°20.637 2°39.619 -999 348 6.7 100610 98
2006-03-29 07:48:43 51°20.641 2°39.589 -999 343 6.7 100610 98
2006-03-29 07:48:48 51°20.644 2°39.558 -999 346 6.7 100610 98
2006-03-29 07:48:52 51°20.647 2°39.534 -999 343 6.7 100610 98
2006-03-29 07:48:58 51°20.651 2°39.497 -999 341 6.7 100610 98
2006-03-29 07:49:03 51°20.655 2°39.467 -999 342 6.7 100610 98
2006-03-29 07:49:08 51°20.658 2°39.436 -999 343 6.7 100610 98
2006-03-29 07:49:13 51°20.661 2°39.405 -999 344 6.7 100610 98
2006-03-29 07:49:18 51°20.663 2°39.375 -999 344 6.7 100610 98
2006-03-29 07:49:23 51°20.666 2°39.344 -999 342 6.7 100610 98
2006-03-29 07:49:28 51°20.668 2°39.313 -999 347 6.7 100600 98
2006-03-29 07:49:32 51°20.669 2°39.289 -999 347 6.7 100600 98
2006-03-29 07:49:38 51°20.672 2°39.252 -999 344 6.7 100610 98
2006-03-29 07:49:43 51°20.674 2°39.221 -999 344 6.7 100610 98
2006-03-29 07:49:48 51°20.676 2°39.19 -999 346 6.7 100610 98
2006-03-29 07:49:52 51°20.679 2°39.166 -999 346 6.7 100610 98
2006-03-29 07:49:58 51°20.681 2°39.129 -999 346 6.7 100610 98
2006-03-29 07:50:03 51°20.684 2°39.099 -999 343 6.7 100610 98
2006-03-29 07:50:07 51°20.686 2°39.074 -999 348 6.7 100600 98
2006-03-29 07:50:12 51°20.688 2°39.043 -999 344 6.7 100600 98
2006-03-29 07:50:18 51°20.691 2°39.007 -999 339 6.7 100610 98
2006-03-29 07:50:22 51°20.692 2°38.982 -999 346 6.7 100610 98
2006-03-29 07:50:27 51°20.695 2°38.952 -999 346 6.7 100610 98
2006-03-29 07:50:32 51°20.697 2°38.921 -999 343 6.7 100610 98
2006-03-29 07:50:38 51°20.7 2°38.885 -999 345 6.7 100610 98
2006-03-29 07:50:43 51°20.702 2°38.854 -999 346 6.7 100610 98
2006-03-29 07:50:48 51°20.705 2°38.823 -999 342 6.7 100610 98
2006-03-29 07:50:53 51°20.707 2°38.792 -999 349 6.7 100610 98
2006-03-29 07:50:58 51°20.709 2°38.762 -999 346 6.7 100610 98
2006-03-29 07:51:03 51°20.711 2°38.731 -999 342 6.7 100610 98
2006-03-29 07:51:08 51°20.713 2°38.701 -999 342 6.7 100610 98
2006-03-29 07:51:12 51°20.715 2°38.676 -999 344 6.7 100610 98
2006-03-29 07:51:18 51°20.718 2°38.64 -999 340 6.7 100610 98
2006-03-29 07:51:23 51°20.72 2°38.609 -999 344 6.7 100610 98
2006-03-29 07:51:28 51°20.722 2°38.578 -999 343 6.7 100610 98
2006-03-29 07:51:32 51°20.724 2°38.554 -999 344 6.7 100610 98
2006-03-29 07:51:38 51°20.727 2°38.517 -999 345 6.7 100620 98
2006-03-29 07:51:43 51°20.73 2°38.486 -999 341 6.7 100620 98
2006-03-29 07:51:48 51°20.732 2°38.455 -999 343 6.7 100610 98
2006-03-29 07:51:52 51°20.734 2°38.431 -999 344 6.7 100610 98
2006-03-29 07:51:58 51°20.736 2°38.394 -999 343 6.7 100610 98
2006-03-29 07:52:03 51°20.739 2°38.363 -999 342 6.7 100610 98
2006-03-29 07:52:08 51°20.741 2°38.332 -999 344 6.7 100610 98
2006-03-29 07:52:13 51°20.742 2°38.301 -999 347 6.7 100610 98
2006-03-29 07:52:18 51°20.744 2°38.271 -999 347 6.7 100600 98
2006-03-29 07:52:22 51°20.746 2°38.246 -999 348 6.7 100600 98
2006-03-29 07:52:28 51°20.748 2°38.209 -999 343 6.7 100610 98
2006-03-29 07:52:32 51°20.75 2°38.185 -999 346 6.7 100610 98
2006-03-29 07:52:38 51°20.753 2°38.148 -999 348 6.7 100620 98
2006-03-29 07:52:43 51°20.755 2°38.117 -999 346 6.7 100620 98
2006-03-29 07:52:48 51°20.757 2°38.086 -999 347 6.7 100620 98
2006-03-29 07:52:53 51°20.759 2°38.055 -999 348 6.7 100620 98
2006-03-29 07:52:58 51°20.761 2°38.025 -999 350 6.7 100610 98
2006-03-29 07:53:03 51°20.763 2°37.993 -999 347 6.7 100610 98
2006-03-29 07:53:08 51°20.766 2°37.962 -999 347 6.7 100610 98
2006-03-29 07:53:12 51°20.768 2°37.938 -999 352 6.7 100610 98
2006-03-29 07:53:18 51°20.77 2°37.901 -999 347 6.7 100610 98
2006-03-29 07:53:23 51°20.772 2°37.87 -999 347 6.7 100610 98
2006-03-29 07:53:28 51°20.775 2°37.839 -999 352 6.7 100620 98
2006-03-29 07:53:33 51°20.777 2°37.808 -999 351 6.7 100620 98
2006-03-29 07:53:38 51°20.779 2°37.777 -999 354 6.7 100620 98
2006-03-29 07:53:43 51°20.78 2°37.746 -999 350 6.7 100620 98
2006-03-29 07:53:48 51°20.782 2°37.715 -999 351 6.7 100610 98
2006-03-29 07:53:53 51°20.784 2°37.684 -999 352 6.7 100610 98
2006-03-29 07:53:58 51°20.786 2°37.653 -999 350 6.7 100620 98
2006-03-29 07:54:03 51°20.788 2°37.622 -999 348 6.7 100620 98
2006-03-29 07:54:08 51°20.79 2°37.591 -999 352 6.7 100620 98
2006-03-29 07:54:13 51°20.792 2°37.56 -999 350 6.7 100620 98
2006-03-29 07:54:18 51°20.794 2°37.529 -999 352 6.7 100620 98
2006-03-29 07:54:23 51°20.796 2°37.498 -999 351 6.7 100620 98
2006-03-29 07:54:28 51°20.798 2°37.467 -999 352 6.7 100620 98
2006-03-29 07:54:33 51°20.8 2°37.436 -999 353 6.7 100620 98
2006-03-29 07:54:38 51°20.802 2°37.405 -999 352 6.7 100630 98
2006-03-29 07:54:43 51°20.804 2°37.374 -999 352 6.7 100630 98
2006-03-29 07:54:48 51°20.805 2°37.343 -999 352 6.7 100630 98
2006-03-29 07:54:53 51°20.807 2°37.312 -999 352 6.7 100630 98
2006-03-29 07:54:58 51°20.809 2°37.281 -999 354 6.7 100620 98
2006-03-29 07:55:03 51°20.811 2°37.25 -999 350 6.7 100620 98
2006-03-29 07:55:08 51°20.813 2°37.219 -999 351 6.7 100620 98
2006-03-29 07:55:13 51°20.815 2°37.188 -999 350 6.7 100620 98
2006-03-29 07:55:18 51°20.817 2°37.157 -999 351 6.7 100620 98
2006-03-29 07:55:23 51°20.819 2°37.125 -999 352 6.7 100620 98
2006-03-29 07:55:28 51°20.821 2°37.094 -999 346 6.6 100620 98
2006-03-29 07:55:33 51°20.824 2°37.063 -999 348 6.6 100620 98
2006-03-29 07:55:38 51°20.827 2°37.032 -999 351 6.6 100620 98
2006-03-29 07:55:42 51°20.829 2°37.007 -999 349 6.6 100620 98
2006-03-29 07:55:48 51°20.833 2°36.97 -999 348 6.7 100630 98
2006-03-29 07:55:52 51°20.836 2°36.945 -999 346 6.7 100630 98
2006-03-29 07:55:58 51°20.84 2°36.908 -999 353 6.7 100620 98
2006-03-29 07:56:03 51°20.844 2°36.877 -999 346 6.7 100620 98
2006-03-29 07:56:08 51°20.848 2°36.846 -999 348 6.6 100630 98
2006-03-29 07:56:12 51°20.851 2°36.822 -999 346 6.6 100630 98
2006-03-29 07:56:18 51°20.857 2°36.786 -999 347 6.6 100610 98
2006-03-29 07:56:23 51°20.861 2°36.756 -999 351 6.6 100610 98
2006-03-29 07:56:28 51°20.866 2°36.725 -999 348 6.6 100620 98
2006-03-29 07:56:32 51°20.87 2°36.701 -999 348 6.6 100620 98
2006-03-29 07:56:38 51°20.875 2°36.665 -999 343 6.6 100620 98
2006-03-29 07:56:42 51°20.879 2°36.641 -999 -999 6.6 100620 98
2006-03-29 07:56:48 51°20.885 2°36.604 -999 342 6.6 100620 98
2006-03-29 07:56:53 51°20.89 2°36.574 -999 348 6.6 100620 98
2006-03-29 07:56:58 51°20.895 2°36.544 -999 344 6.6 100620 98
2006-03-29 07:57:03 51°20.899 2°36.514 -999 343 6.6 100620 98
2006-03-29 07:57:08 51°20.904 2°36.483 -999 342 6.7 100630 98
2006-03-29 07:57:13 51°20.909 2°36.453 -999 342 6.7 100630 98
2006-03-29 07:57:18 51°20.914 2°36.423 -999 340 6.6 100620 98
2006-03-29 07:57:23 51°20.918 2°36.392 -999 342 6.6 100620 98
2006-03-29 07:57:28 51°20.923 2°36.362 -999 345 6.6 100610 98
2006-03-29 07:57:32 51°20.927 2°36.338 -999 349 6.6 100610 98
2006-03-29 07:57:38 51°20.932 2°36.301 -999 347 6.6 100610 98
2006-03-29 07:57:43 51°20.936 2°36.27 -999 -999 6.6 100610 98
2006-03-29 07:57:47 51°20.94 2°36.246 -999 341 6.6 100620 98
2006-03-29 07:57:52 51°20.944 2°36.215 -999 342 6.6 100620 98
2006-03-29 07:57:58 51°20.95 2°36.178 -999 345 6.6 100620 98
2006-03-29 07:58:03 51°20.954 2°36.148 -999 344 6.6 100620 98
2006-03-29 07:58:08 51°20.959 2°36.117 -999 342 6.6 100620 98
2006-03-29 07:58:12 51°20.962 2°36.093 -999 340 6.6 100620 98
2006-03-29 07:58:18 51°20.967 2°36.056 -999 338 6.6 100620 98
2006-03-29 07:58:23 51°20.972 2°36.026 -999 340 6.6 100620 98
2006-03-29 07:58:28 51°20.977 2°35.995 -999 342 6.6 100620 98
2006-03-29 07:58:33 51°20.981 2°35.964 -999 341 6.6 100620 98
2006-03-29 07:58:38 51°20.985 2°35.934 -999 345 6.6 100620 98
2006-03-29 07:58:43 51°20.989 2°35.903 -999 343 6.6 100620 98
2006-03-29 07:58:48 51°20.993 2°35.873 -999 344 6.6 100610 98
2006-03-29 07:58:52 51°20.996 2°35.848 -999 343 6.6 100610 98
2006-03-29 07:58:58 51°21.001 2°35.811 -999 340 6.6 100610 98
2006-03-29 07:59:03 51°21.006 2°35.78 -999 339 6.6 100610 98
2006-03-29 07:59:08 51°21.01 2°35.75 -999 343 6.6 100620 98
2006-03-29 07:59:13 51°21.014 2°35.718 -999 347 6.6 100620 98
2006-03-29 07:59:18 51°21.018 2°35.688 -999 340 6.6 100610 98
2006-03-29 07:59:23 51°21.023 2°35.657 -999 341 6.6 100610 98
2006-03-29 07:59:27 51°21.026 2°35.632 -999 342 6.6 100620 98
2006-03-29 07:59:32 51°21.03 2°35.601 -999 339 6.6 100620 98
2006-03-29 07:59:38 51°21.035 2°35.564 -999 341 6.6 100620 98
2006-03-29 07:59:43 51°21.039 2°35.533 -999 344 6.6 100620 98
2006-03-29 07:59:47 51°21.042 2°35.509 -999 344 6.6 100620 98
2006-03-29 07:59:52 51°21.047 2°35.478 -999 343 6.6 100620 98
2006-03-29 07:59:58 51°21.052 2°35.441 -999 339 6.6 100610 98
2006-03-29 08:00:03 51°21.057 2°35.41 -999 341 6.6 100610 98
2006-03-29 08:00:08 51°21.061 2°35.379 -999 339 6.6 100620 98
2006-03-29 08:00:12 51°21.064 2°35.354 -999 344 6.6 100620 98
2006-03-29 08:00:18 51°21.069 2°35.317 -999 339 6.6 100620 98
2006-03-29 08:00:23 51°21.074 2°35.286 -999 343 6.6 100620 98
2006-03-29 08:00:28 51°21.078 2°35.256 -999 342 6.6 100620 98
2006-03-29 08:00:33 51°21.082 2°35.225 -999 343 6.6 100620 98
2006-03-29 08:00:38 51°21.086 2°35.193 -999 343 6.6 100610 98
2006-03-29 08:00:43 51°21.091 2°35.163 -999 342 6.6 100610 98
2006-03-29 08:00:48 51°21.095 2°35.132 -999 345 6.6 100620 98
2006-03-29 08:00:52 51°21.098 2°35.107 -999 343 6.6 100620 98
2006-03-29 08:00:58 51°21.104 2°35.07 -999 344 6.6 100620 98
2006-03-29 08:01:03 51°21.108 2°35.039 -999 339 6.6 100620 98
2006-03-29 08:01:08 51°21.112 2°35.009 -999 343 6.7 100620 98
2006-03-29 08:01:13 51°21.116 2°34.977 -999 340 6.7 100620 98
2006-03-29 08:01:18 51°21.12 2°34.947 -999 340 6.6 100620 98
2006-03-29 08:01:23 51°21.124 2°34.915 -999 343 6.6 100620 98
2006-03-29 08:01:28 51°21.128 2°34.884 -999 342 6.7 100610 98
2006-03-29 08:01:33 51°21.132 2°34.853 -999 342 6.7 100610 98
2006-03-29 08:01:38 51°21.137 2°34.822 -999 342 6.6 100620 98
2006-03-29 08:01:43 51°21.141 2°34.791 -999 342 6.6 100620 98
2006-03-29 08:01:48 51°21.145 2°34.76 -999 339 6.6 100620 98
2006-03-29 08:01:53 51°21.15 2°34.729 -999 340 6.6 100620 98
2006-03-29 08:01:58 51°21.154 2°34.698 -999 339 6.6 100620 98
2006-03-29 08:02:03 51°21.158 2°34.667 -999 342 6.6 100620 98
2006-03-29 08:02:08 51°21.162 2°34.636 -999 338 6.7 100620 98
2006-03-29 08:02:12 51°21.165 2°34.611 -999 342 6.7 100620 98
2006-03-29 08:02:18 51°21.17 2°34.573 -999 339 6.6 100620 98
2006-03-29 08:02:23 51°21.175 2°34.542 -999 340 6.6 100620 98